Time;durP1;ratioP1;P1;durP2;ratioP2;P2;SDS_P1;SDS_P2;PMS_P1;PMS_P2;Temp;Humidity;BMP_temperature;BMP_pressure;BME280_temperature;BME280_humidity;BME280_pressure;Samples;Min_cycle;Max_cycle;Signal;HPM_P1;HPM_P2
2021/10/16 00:01:20;;;;;;;5.20;1.73;;;16.00;73.80;;;;;;4932112;28;96541;-65
2021/10/16 00:03:50;;;;;;;4.85;1.70;;;16.00;73.90;;;;;;4932448;28;96129;-65
2021/10/16 00:06:20;;;;;;;5.05;2.65;;;16.10;73.90;;;;;;4933519;28;98516;-65
2021/10/16 00:08:50;;;;;;;5.50;2.03;;;16.10;73.90;;;;;;4940318;28;96113;-65
2021/10/16 00:11:20;;;;;;;5.05;1.55;;;16.00;73.70;;;;;;4936735;28;96117;-65
2021/10/16 00:13:50;;;;;;;4.10;1.38;;;16.10;73.80;;;;;;4931156;28;95746;-65
2021/10/16 00:16:23;;;;;;;4.63;1.55;;;16.10;73.30;;;;;;4929169;28;95834;-65
2021/10/16 00:18:58;;;;;;;6.45;1.85;;;16.10;73.10;;;;;;4934483;28;95261;-65
2021/10/16 00:21:28;;;;;;;4.28;1.90;;;16.10;73.00;;;;;;4931676;28;98511;-65
2021/10/16 00:23:59;;;;;;;6.72;2.78;;;16.10;72.70;;;;;;4933841;28;95788;-66
2021/10/16 00:26:33;;;;;;;5.85;1.88;;;16.00;72.20;;;;;;4934123;28;95261;-66
2021/10/16 00:29:04;;;;;;;5.43;2.72;;;16.00;72.00;;;;;;4931822;28;95251;-65
2021/10/16 00:31:36;;;;;;;6.40;2.53;;;16.00;71.90;;;;;;4920106;28;97328;-65
2021/10/16 00:34:07;;;;;;;5.43;2.03;;;16.10;72.00;;;;;;4923079;28;95663;-65
2021/10/16 00:36:39;;;;;;;7.93;1.95;;;16.00;72.00;;;;;;4933841;28;95742;-66
2021/10/16 00:39:09;;;;;;;9.07;2.53;;;16.00;71.90;;;;;;4932397;28;96927;-66
2021/10/16 00:41:39;;;;;;;6.78;2.30;;;16.00;72.00;;;;;;4931239;28;96792;-65
2021/10/16 00:44:15;;;;;;;8.43;2.55;;;16.00;72.00;;;;;;4932592;28;96014;-65
2021/10/16 00:46:47;;;;;;;7.38;2.22;;;16.00;72.00;;;;;;4928678;28;95712;-65
2021/10/16 00:49:20;;;;;;;9.90;2.97;;;16.00;72.00;;;;;;4915539;28;95776;-65
2021/10/16 00:51:53;;;;;;;5.07;2.13;;;16.00;72.00;;;;;;4934277;28;95835;-64
2021/10/16 00:54:24;;;;;;;8.38;2.40;;;16.00;71.90;;;;;;4930223;28;96219;-65
2021/10/16 00:56:58;;;;;;;9.57;2.33;;;16.00;72.00;;;;;;4932505;28;95583;-65
2021/10/16 00:59:30;;;;;;;9.68;2.70;;;16.00;71.80;;;;;;4915683;28;95324;-65
2021/10/16 01:02:01;;;;;;;7.43;2.00;;;16.00;71.70;;;;;;4924078;28;98061;-64
2021/10/16 01:04:33;;;;;;;3.88;2.10;;;16.10;72.10;;;;;;4915394;28;95476;-68
2021/10/16 01:07:13;;;;;;;6.13;2.13;;;16.10;72.50;;;;;;4919780;28;95734;-65
2021/10/16 01:09:47;;;;;;;11.88;2.20;;;16.10;72.70;;;;;;4914213;28;95428;-69
2021/10/16 01:12:18;;;;;;;5.03;2.45;;;16.30;73.20;;;;;;4914080;28;98703;-69
2021/10/16 01:14:59;;;;;;;6.23;2.20;;;16.40;73.00;;;;;;4915202;28;96368;-65
2021/10/16 01:17:36;;;;;;;4.57;1.80;;;16.50;73.20;;;;;;4916143;28;95996;-68
2021/10/16 01:20:13;;;;;;;4.32;1.60;;;16.60;73.00;;;;;;4935609;28;96014;-66
2021/10/16 01:22:44;;;;;;;4.13;1.60;;;16.80;73.10;;;;;;4941418;28;97394;-65
2021/10/16 01:25:19;;;;;;;2.55;1.27;;;16.90;73.10;;;;;;4927303;28;95317;-63
2021/10/16 01:27:51;;;;;;;3.50;1.60;;;17.00;72.80;;;;;;4927380;28;96352;-64
2021/10/16 01:30:26;;;;;;;4.82;1.80;;;17.10;72.90;;;;;;4922744;28;95195;-64
2021/10/16 01:32:56;;;;;;;4.13;1.50;;;17.10;72.70;;;;;;4918946;28;102802;-65
2021/10/16 01:35:30;;;;;;;3.65;1.48;;;17.20;72.70;;;;;;4933142;28;95754;-64
2021/10/16 01:38:00;;;;;;;3.30;1.30;;;17.30;72.60;;;;;;4918153;28;95903;-68
2021/10/16 01:40:31;;;;;;;3.60;1.55;;;17.40;72.50;;;;;;4932717;28;95965;-65
2021/10/16 01:43:02;;;;;;;2.33;1.13;;;17.50;72.40;;;;;;4933744;28;98747;-64
2021/10/16 01:45:34;;;;;;;3.03;1.77;;;17.60;72.30;;;;;;4921732;28;97192;-66
2021/10/16 01:48:07;;;;;;;2.50;1.00;;;17.60;72.10;;;;;;4933707;28;95825;-65
2021/10/16 01:50:41;;;;;;;2.33;1.30;;;17.70;72.10;;;;;;4922651;28;95360;-65
2021/10/16 01:53:29;;;;;;;2.45;1.30;;;17.80;72.10;;;;;;4933249;28;97312;-65
2021/10/16 01:56:02;;;;;;;2.10;1.15;;;17.90;72.10;;;;;;4932719;28;97450;-66
2021/10/16 01:58:39;;;;;;;3.67;1.33;;;18.00;71.90;;;;;;4947588;28;95971;-64
2021/10/16 02:01:33;;;;;;;1.70;1.00;;;18.10;71.80;;;;;;4930975;28;95863;-65
2021/10/16 02:04:17;;;;;;;2.05;1.27;;;18.20;71.60;;;;;;4930510;28;97350;-70
2021/10/16 02:06:48;;;;;;;1.65;1.25;;;18.30;71.30;;;;;;4931082;28;97294;-66
2021/10/16 02:09:19;;;;;;;2.10;1.00;;;18.50;70.90;;;;;;4914954;28;95999;-71
2021/10/16 02:11:51;;;;;;;2.40;1.55;;;18.70;70.50;;;;;;4929999;28;95839;-67
2021/10/16 02:14:20;;;;;;;2.30;0.93;;;18.90;70.20;;;;;;4930431;28;97890;-66
2021/10/16 02:16:54;;;;;;;1.40;0.70;;;19.00;69.80;;;;;;4926109;28;95863;-70
2021/10/16 02:19:25;;;;;;;1.02;0.60;;;19.10;69.50;;;;;;4931355;28;96003;-68
2021/10/16 02:21:58;;;;;;;1.92;1.05;;;19.20;69.40;;;;;;4929628;28;96029;-66
2021/10/16 02:24:30;;;;;;;1.20;0.90;;;19.30;69.20;;;;;;4930309;28;98440;-65
2021/10/16 02:27:02;;;;;;;1.88;1.17;;;19.40;69.00;;;;;;4929388;28;97942;-64
2021/10/16 02:29:33;;;;;;;0.93;0.73;;;19.50;68.90;;;;;;4933411;28;96133;-65
2021/10/16 02:32:08;;;;;;;1.55;0.93;;;19.50;69.30;;;;;;4933042;28;96144;-67
2021/10/16 02:34:40;;;;;;;1.35;0.75;;;19.70;68.70;;;;;;4925892;28;98100;-65
2021/10/16 02:37:17;;;;;;;0.70;0.70;;;19.80;68.50;;;;;;4930547;28;95950;-68
2021/10/16 02:39:48;;;;;;;2.53;1.20;;;19.90;68.40;;;;;;4929582;28;96017;-64
2021/10/16 02:42:20;;;;;;;2.88;1.20;;;19.90;66.10;;;;;;4929034;28;96682;-66
2021/10/16 02:44:54;;;;;;;5.00;1.63;;;19.90;66.80;;;;;;4927307;28;98725;-64
2021/10/16 02:47:31;;;;;;;4.38;1.15;;;19.80;65.60;;;;;;4927641;28;96108;-65
2021/10/16 02:50:01;;;;;;;7.72;2.28;;;19.80;64.70;;;;;;4931531;28;95801;-65
2021/10/16 02:52:33;;;;;;;4.20;1.55;;;19.70;64.70;;;;;;4939539;28;96076;-68
2021/10/16 02:55:05;;;;;;;4.55;1.33;;;19.60;65.70;;;;;;4931280;28;98563;-65
2021/10/16 02:57:52;;;;;;;4.43;1.25;;;19.50;64.40;;;;;;4930488;28;97780;-65
2021/10/16 03:00:22;;;;;;;;;;;19.50;64.70;;;;;;4928295;28;96512;-66
2021/10/16 03:02:59;;;;;;;4.00;1.35;;;19.50;64.80;;;;;;4932372;28;95892;-65
2021/10/16 03:05:29;;;;;;;3.92;1.50;;;19.50;64.80;;;;;;4945791;28;96195;-69
2021/10/16 03:08:01;;;;;;;4.03;1.30;;;19.50;64.70;;;;;;4930597;28;95691;-67
2021/10/16 03:10:31;;;;;;;2.97;1.17;;;19.50;64.80;;;;;;4947544;28;95272;-70
2021/10/16 03:13:00;;;;;;;2.42;1.23;;;19.50;64.90;;;;;;4932541;28;95404;-68
2021/10/16 03:15:31;;;;;;;2.75;1.50;;;19.50;65.10;;;;;;4926033;28;98519;-65
2021/10/16 03:18:03;;;;;;;3.75;2.13;;;19.40;65.20;;;;;;4932091;28;96691;-65
2021/10/16 03:20:34;;;;;;;4.20;1.48;;;19.40;66.00;;;;;;4931590;28;95920;-65
2021/10/16 03:23:08;;;;;;;2.60;1.20;;;19.40;65.60;;;;;;4932417;28;97362;-65
2021/10/16 03:25:41;;;;;;;4.97;1.70;;;19.40;65.80;;;;;;4929407;28;98380;-68
2021/10/16 03:28:12;;;;;;;2.70;1.17;;;19.50;66.10;;;;;;4915159;28;97584;-65
2021/10/16 03:30:44;;;;;;;3.80;1.30;;;19.40;66.20;;;;;;4932037;28;96085;-65
2021/10/16 03:33:15;;;;;;;4.20;1.20;;;19.40;65.90;;;;;;4926540;28;96756;-65
2021/10/16 03:35:47;;;;;;;4.78;1.30;;;19.40;65.80;;;;;;4932344;28;97112;-66
2021/10/16 03:38:17;;;;;;;3.13;1.40;;;19.40;66.00;;;;;;4930175;28;97348;-65
2021/10/16 03:40:48;;;;;;;3.60;1.27;;;19.40;65.80;;;;;;4931813;28;95778;-65
2021/10/16 03:43:18;;;;;;;4.87;2.10;;;19.30;65.90;;;;;;4946622;28;95641;-67
2021/10/16 03:45:50;;;;;;;5.57;2.08;;;19.30;66.20;;;;;;4926505;28;98060;-67
2021/10/16 03:48:21;;;;;;;7.22;2.50;;;19.20;66.10;;;;;;4930302;28;97884;-67
2021/10/16 03:50:52;;;;;;;6.88;2.88;;;19.30;66.60;;;;;;4915621;28;95821;-68
2021/10/16 03:53:23;;;;;;;5.30;2.60;;;19.20;66.50;;;;;;4931119;28;95611;-66
2021/10/16 03:55:53;;;;;;;5.40;2.70;;;19.20;66.60;;;;;;4932686;28;98407;-69
2021/10/16 03:58:24;;;;;;;5.10;2.60;;;19.20;66.70;;;;;;4931827;28;97929;-70
2021/10/16 04:01:00;;;;;;;4.07;2.55;;;19.20;66.80;;;;;;4927491;28;96126;-65
2021/10/16 04:03:32;;;;;;;4.18;2.17;;;19.20;66.90;;;;;;4931135;28;95896;-66
2021/10/16 04:06:02;;;;;;;3.30;1.80;;;19.20;66.90;;;;;;4931269;28;100442;-69
2021/10/16 04:08:32;;;;;;;3.15;1.90;;;19.30;66.80;;;;;;4937601;28;97819;-65
2021/10/16 04:11:02;;;;;;;3.90;2.13;;;19.20;66.60;;;;;;4925956;28;96138;-70
2021/10/16 04:13:33;;;;;;;5.50;2.40;;;19.20;66.70;;;;;;4931393;28;96000;-69
2021/10/16 04:16:04;;;;;;;3.65;1.70;;;19.20;66.80;;;;;;4925252;28;98330;-66
2021/10/16 04:18:35;;;;;;;6.03;2.30;;;19.20;66.90;;;;;;4922929;28;96657;-65
2021/10/16 04:21:07;;;;;;;2.58;1.50;;;19.20;66.90;;;;;;4924610;28;95336;-67
2021/10/16 04:23:39;;;;;;;3.05;1.73;;;19.10;66.80;;;;;;4942618;28;95849;-66
2021/10/16 04:26:10;;;;;;;3.00;1.70;;;19.20;66.90;;;;;;4948929;28;97456;-65
2021/10/16 04:28:44;;;;;;;5.70;1.95;;;19.10;67.00;;;;;;4936020;28;95378;-66
2021/10/16 04:31:24;;;;;;;4.68;1.83;;;19.10;67.20;;;;;;4916522;28;95997;-65
2021/10/16 04:33:56;;;;;;;3.53;1.42;;;19.10;67.20;;;;;;4932398;28;95682;-66
2021/10/16 04:36:26;;;;;;;4.00;2.00;;;19.20;67.20;;;;;;4933885;28;95699;-69
2021/10/16 04:38:57;;;;;;;4.15;1.70;;;19.10;67.10;;;;;;4928247;28;95444;-66
2021/10/16 04:41:28;;;;;;;3.47;1.40;;;19.10;67.00;;;;;;4923986;28;95896;-69
2021/10/16 04:43:59;;;;;;;3.83;1.70;;;19.10;67.00;;;;;;4924192;28;95419;-66
2021/10/16 04:46:30;;;;;;;2.28;1.17;;;19.10;67.00;;;;;;4912354;28;96183;-66
2021/10/16 04:49:06;;;;;;;4.80;1.92;;;19.10;67.10;;;;;;4925023;28;95953;-66
2021/10/16 04:51:43;;;;;;;3.70;1.30;;;19.10;67.30;;;;;;4926610;28;96275;-65
2021/10/16 04:54:18;;;;;;;3.08;1.67;;;19.10;67.20;;;;;;4922516;28;96850;-66
2021/10/16 04:56:49;;;;;;;4.20;1.45;;;19.00;67.10;;;;;;4927811;28;96794;-66
2021/10/16 04:59:24;;;;;;;1.42;1.00;;;19.00;67.10;;;;;;4924165;28;95337;-66
2021/10/16 05:01:56;;;;;;;2.35;1.45;;;19.00;67.00;;;;;;4914264;28;96328;-67
2021/10/16 05:04:28;;;;;;;4.15;1.85;;;19.00;67.00;;;;;;4915346;28;96743;-67
2021/10/16 05:07:00;;;;;;;2.70;1.40;;;19.00;66.90;;;;;;4930229;28;98594;-66
2021/10/16 05:09:36;;;;;;;4.53;2.53;;;18.90;66.60;;;;;;4917737;28;96524;-68
2021/10/16 05:12:08;;;;;;;2.22;1.27;;;18.90;66.70;;;;;;4917891;28;95125;-66
2021/10/16 05:14:39;;;;;;;5.38;1.73;;;18.80;66.80;;;;;;4917954;28;96144;-70
2021/10/16 05:17:11;;;;;;;2.15;1.10;;;18.80;66.80;;;;;;4920111;28;96824;-66
2021/10/16 05:19:42;;;;;;;2.25;1.08;;;18.80;66.80;;;;;;4953875;28;96739;-66
2021/10/16 05:22:12;;;;;;;1.95;1.08;;;18.80;66.90;;;;;;4940629;28;95398;-66
2021/10/16 05:24:44;;;;;;;2.42;1.02;;;18.70;66.80;;;;;;4932882;28;95840;-64
2021/10/16 05:27:17;;;;;;;2.53;1.10;;;18.70;66.80;;;;;;4937171;28;96103;-68
2021/10/16 05:29:49;;;;;;;3.97;1.45;;;18.70;66.80;;;;;;4936010;28;96886;-65
2021/10/16 05:32:20;;;;;;;1.33;0.95;;;18.70;66.70;;;;;;4917533;28;95558;-68
2021/10/16 05:34:51;;;;;;;2.50;1.42;;;18.70;67.00;;;;;;4935122;28;95691;-67
2021/10/16 05:37:21;;;;;;;4.10;1.23;;;18.70;67.30;;;;;;4937981;28;99073;-67
2021/10/16 05:39:51;;;;;;;1.17;0.88;;;18.70;67.30;;;;;;4937015;28;97712;-66
2021/10/16 05:42:21;;;;;;;5.37;1.33;;;18.70;67.90;;;;;;4933923;28;97029;-65
2021/10/16 05:44:52;;;;;;;3.97;1.70;;;18.70;68.30;;;;;;4935134;28;95991;-69
2021/10/16 05:47:24;;;;;;;4.25;1.20;;;18.70;68.10;;;;;;4933620;28;96309;-67
2021/10/16 05:49:54;;;;;;;5.38;1.10;;;18.70;67.90;;;;;;4935338;28;97706;-68
2021/10/16 05:52:28;;;;;;;4.80;1.35;;;18.70;67.90;;;;;;4920728;28;96289;-65
2021/10/16 05:54:58;;;;;;;5.57;1.10;;;18.60;67.80;;;;;;4930663;28;95429;-67
2021/10/16 05:57:29;;;;;;;2.85;1.02;;;18.60;67.80;;;;;;4936247;28;96306;-67
2021/10/16 06:00:00;;;;;;;;;;;18.70;67.90;;;;;;4936562;28;97292;-66
2021/10/16 06:02:44;;;;;;;2.67;1.13;;;18.70;67.80;;;;;;4926922;28;100092;-66
2021/10/16 06:05:22;;;;;;;2.00;0.95;;;18.70;68.10;;;;;;4929257;28;95918;-65
2021/10/16 06:07:53;;;;;;;4.60;1.52;;;18.70;68.70;;;;;;4927180;28;96268;-69
2021/10/16 06:10:26;;;;;;;4.60;1.30;;;18.80;69.00;;;;;;4916704;28;98260;-70
2021/10/16 06:12:56;;;;;;;3.55;1.20;;;18.80;68.80;;;;;;4935191;28;95497;-70
2021/10/16 06:15:26;;;;;;;4.85;1.35;;;18.80;68.80;;;;;;4913884;28;95462;-69
2021/10/16 06:17:56;;;;;;;1.70;0.90;;;18.90;68.80;;;;;;4934344;28;97563;-69
2021/10/16 06:20:31;;;;;;;4.30;1.25;;;18.90;68.90;;;;;;4933067;28;97971;-66
2021/10/16 06:23:03;;;;;;;3.88;1.25;;;18.90;68.80;;;;;;4935580;28;95808;-65
2021/10/16 06:25:35;;;;;;;2.30;1.10;;;18.90;68.70;;;;;;4913142;28;95598;-69
2021/10/16 06:28:07;;;;;;;2.20;1.13;;;19.00;68.70;;;;;;4933197;28;98535;-66
2021/10/16 06:30:38;;;;;;;2.83;1.13;;;19.00;68.60;;;;;;4925976;28;95707;-65
2021/10/16 06:33:09;;;;;;;2.22;1.38;;;19.00;68.40;;;;;;4924926;28;96067;-68
2021/10/16 06:35:42;;;;;;;2.50;1.52;;;19.00;68.30;;;;;;4948999;28;95867;-67
2021/10/16 06:38:22;;;;;;;;;;;19.00;68.40;;;;;;4933290;28;96913;-65
2021/10/16 06:40:53;;;;;;;3.67;1.30;;;19.00;68.50;;;;;;4934913;28;97842;-65
2021/10/16 06:43:41;;;;;;;3.75;1.50;;;19.00;68.40;;;;;;4938733;28;95656;-68
2021/10/16 06:46:46;;;;;;;2.83;1.00;;;19.00;68.50;;;;;;4919658;28;95874;-64
2021/10/16 06:49:24;;;;;;;2.03;1.00;;;19.00;68.40;;;;;;4942933;28;98496;-63
2021/10/16 06:51:55;;;;;;;4.40;1.45;;;19.10;68.40;;;;;;4933794;28;98407;-63
2021/10/16 06:54:25;;;;;;;3.95;1.00;;;19.10;68.40;;;;;;4937004;28;95705;-65
2021/10/16 06:56:57;;;;;;;4.53;1.15;;;19.10;68.30;;;;;;4918237;28;95878;-65
2021/10/16 06:59:31;;;;;;;2.22;1.00;;;19.20;68.30;;;;;;4939141;28;96984;-65
2021/10/16 07:02:02;;;;;;;1.77;0.70;;;19.20;67.80;;;;;;4920608;28;98125;-65
2021/10/16 07:10:00;;;;;;;1.35;0.80;;;19.20;67.40;;;;;;4955008;28;96119;-65
2021/10/16 07:14:07;;;;;;;1.42;1.05;;;19.20;67.50;;;;;;4987596;28;96279;-67
2021/10/16 07:18:14;;;;;;;2.72;0.95;;;19.20;67.20;;;;;;4955194;28;95856;-65
2021/10/16 07:21:09;;;;;;;1.35;1.15;;;19.20;67.20;;;;;;4965931;28;95322;-66
2021/10/16 07:24:00;;;;;;;3.17;0.88;;;19.20;67.10;;;;;;4955062;28;95864;-65
2021/10/16 07:26:31;;;;;;;2.17;0.80;;;19.20;66.90;;;;;;4973653;28;97269;-65
2021/10/16 07:29:03;;;;;;;2.67;1.05;;;19.20;66.80;;;;;;4986860;28;96704;-65
2021/10/16 07:31:34;;;;;;;1.60;0.80;;;19.20;66.80;;;;;;4969171;28;96022;-66
2021/10/16 07:34:06;;;;;;;1.60;1.30;;;19.30;66.80;;;;;;4970037;28;95435;-66
2021/10/16 07:36:38;;;;;;;2.28;0.95;;;19.30;66.80;;;;;;4957162;28;96776;-65
2021/10/16 07:39:09;;;;;;;4.15;1.60;;;19.20;66.70;;;;;;4971629;28;95871;-65
2021/10/16 07:41:39;;;;;;;1.27;0.75;;;19.20;66.70;;;;;;4950808;28;95245;-65
2021/10/16 07:44:10;;;;;;;1.60;1.13;;;19.20;66.70;;;;;;4969005;28;95738;-65
2021/10/16 07:46:40;;;;;;;;;;;19.20;66.70;;;;;;4944708;28;98230;-68
2021/10/16 07:49:15;;;;;;;2.95;1.27;;;19.30;66.90;;;;;;4984715;28;96225;-66
2021/10/16 07:51:45;;;;;;;1.60;1.40;;;19.20;66.80;;;;;;4969853;28;95936;-66
2021/10/16 07:54:15;;;;;;;2.15;1.17;;;19.20;67.50;;;;;;4956439;28;95854;-67
2021/10/16 07:56:46;;;;;;;2.78;1.40;;;19.20;67.00;;;;;;4968824;28;96393;-68
2021/10/16 07:59:17;;;;;;;;;;;19.20;67.10;;;;;;4947007;28;96608;-68
2021/10/16 08:01:49;;;;;;;2.15;1.15;;;19.20;67.00;;;;;;4950450;28;96194;-66
2021/10/16 08:04:21;;;;;;;2.55;1.17;;;19.20;67.00;;;;;;4973839;28;95874;-66
2021/10/16 08:06:52;;;;;;;1.63;1.00;;;19.20;66.80;;;;;;4952703;28;96578;-65
2021/10/16 08:09:23;;;;;;;3.15;1.13;;;19.20;66.80;;;;;;4956940;28;95853;-67
2021/10/16 08:11:57;;;;;;;4.07;1.40;;;19.20;66.70;;;;;;4987013;28;95664;-65
2021/10/16 08:14:26;;;;;;;6.10;1.60;;;19.20;66.60;;;;;;4969021;28;95626;-65
2021/10/16 08:16:57;;;;;;;1.85;1.23;;;19.20;67.10;;;;;;4923785;28;98914;-65
2021/10/16 08:19:27;;;;;;;3.25;1.20;;;19.20;66.90;;;;;;4949187;28;97184;-65
2021/10/16 08:21:57;;;;;;;1.27;0.93;;;19.20;67.00;;;;;;4952650;28;95895;-65
2021/10/16 08:24:26;;;;;;;2.08;1.05;;;19.10;66.90;;;;;;4953156;28;96153;-65
2021/10/16 08:26:58;;;;;;;2.72;1.20;;;19.10;67.00;;;;;;4950248;28;97954;-68
2021/10/16 08:29:30;;;;;;;1.75;1.20;;;19.10;66.80;;;;;;4951520;28;96719;-69
2021/10/16 08:32:01;;;;;;;1.60;1.30;;;19.10;66.90;;;;;;4954060;28;96129;-69
2021/10/16 08:34:32;;;;;;;2.30;1.05;;;19.10;66.90;;;;;;4935142;28;95432;-65
2021/10/16 08:37:02;;;;;;;2.55;1.20;;;19.10;66.70;;;;;;4969519;28;96446;-64
2021/10/16 08:39:32;;;;;;;1.88;1.10;;;19.10;66.80;;;;;;4965800;28;95992;-65
2021/10/16 08:42:03;;;;;;;5.70;1.55;;;19.00;66.70;;;;;;4966307;28;95837;-65
2021/10/16 08:44:35;;;;;;;1.60;1.17;;;19.00;66.60;;;;;;4968508;28;95976;-68
2021/10/16 08:47:06;;;;;;;;;;;19.00;66.50;;;;;;4944021;28;98887;-69
2021/10/16 08:49:40;;;;;;;3.25;1.60;;;19.00;66.30;;;;;;4971085;28;96563;-70
2021/10/16 08:52:11;;;;;;;2.55;1.70;;;19.00;66.10;;;;;;4969388;28;95861;-69
2021/10/16 08:54:41;;;;;;;3.55;1.20;;;19.00;65.80;;;;;;4970224;28;96158;-69
2021/10/16 08:57:11;;;;;;;3.67;1.90;;;18.90;66.20;;;;;;4954827;28;97317;-69
2021/10/16 08:59:42;;;;;;;5.22;1.23;;;18.90;65.50;;;;;;4986251;28;95696;-65
2021/10/16 09:02:13;;;;;;;3.75;1.38;;;18.90;65.30;;;;;;4946453;28;95476;-65
2021/10/16 09:04:45;;;;;;;3.25;1.48;;;18.80;65.20;;;;;;4952722;28;96330;-69
2021/10/16 09:07:24;;;;;;;1.75;1.10;;;18.80;65.40;;;;;;4958695;28;96289;-65
2021/10/16 09:09:55;;;;;;;1.02;0.93;;;18.80;65.50;;;;;;4953550;28;95734;-68
2021/10/16 09:12:29;;;;;;;3.50;1.40;;;18.80;65.50;;;;;;4971451;28;95656;-69
2021/10/16 09:14:59;;;;;;;2.15;1.02;;;18.70;65.30;;;;;;4935451;28;95747;-68
2021/10/16 09:17:30;;;;;;;3.55;1.02;;;18.70;65.50;;;;;;4963698;28;96098;-64
2021/10/16 09:20:10;;;;;;;1.67;1.17;;;18.70;65.60;;;;;;4967869;28;95622;-69
2021/10/16 09:22:40;;;;;;;3.20;1.02;;;18.70;65.80;;;;;;4952542;28;95942;-66
2021/10/16 09:25:10;;;;;;;2.85;1.02;;;18.70;65.80;;;;;;4952534;28;96162;-65
2021/10/16 09:27:44;;;;;;;2.33;1.00;;;18.80;65.90;;;;;;4949569;28;96154;-69
2021/10/16 09:30:16;;;;;;;1.83;1.00;;;18.80;66.00;;;;;;4964526;28;95942;-68
2021/10/16 09:32:56;;;;;;;1.85;1.17;;;18.80;65.90;;;;;;4964873;28;95822;-66
2021/10/16 09:35:35;;;;;;;0.95;0.82;;;18.80;65.90;;;;;;4979151;28;95987;-66
2021/10/16 09:38:06;;;;;;;2.35;0.80;;;18.80;65.90;;;;;;4965181;28;96201;-63
2021/10/16 09:40:40;;;;;;;0.80;0.77;;;18.80;65.90;;;;;;4951247;28;95910;-62
2021/10/16 09:43:25;;;;;;;1.63;1.00;;;18.80;65.90;;;;;;4969430;28;95788;-63
2021/10/16 09:46:16;;;;;;;1.52;0.90;;;18.80;66.00;;;;;;4960752;28;95616;-66
2021/10/16 09:48:47;;;;;;;1.30;0.80;;;18.80;66.00;;;;;;4971473;28;96107;-65
2021/10/16 09:51:21;;;;;;;0.93;0.73;;;18.80;65.90;;;;;;4975107;28;95562;-65
2021/10/16 09:54:07;;;;;;;1.00;0.60;;;18.80;65.90;;;;;;4971544;28;96099;-63
2021/10/16 09:56:38;;;;;;;1.48;0.77;;;18.80;66.10;;;;;;4963901;28;95835;-65
2021/10/16 09:59:09;;;;;;;1.23;0.70;;;18.80;66.10;;;;;;4970778;28;97403;-64
2021/10/16 10:01:39;;;;;;;;;;;18.80;66.00;;;;;;4957646;28;95711;-68
2021/10/16 10:04:13;;;;;;;0.77;0.77;;;18.80;66.00;;;;;;4989089;28;95636;-64
2021/10/16 10:06:47;;;;;;;1.83;0.95;;;18.80;66.00;;;;;;4941663;28;96003;-67
2021/10/16 10:09:21;;;;;;;1.48;0.65;;;18.80;66.00;;;;;;4967993;28;96243;-65
2021/10/16 10:11:53;;;;;;;1.15;0.90;;;18.80;66.00;;;;;;4970633;28;96417;-63
2021/10/16 10:14:24;;;;;;;0.95;0.75;;;18.80;66.00;;;;;;4951259;28;95888;-65
2021/10/16 10:16:56;;;;;;;;;;;18.80;66.00;;;;;;4944062;28;95893;-64
2021/10/16 10:19:30;;;;;;;1.45;0.73;;;18.80;66.00;;;;;;4968799;28;95690;-63
2021/10/16 10:22:00;;;;;;;1.20;0.60;;;18.80;66.00;;;;;;4979859;28;95891;-65
2021/10/16 10:24:43;;;;;;;0.60;0.60;;;18.80;66.00;;;;;;4970233;28;97071;-65
2021/10/16 10:27:17;;;;;;;1.27;0.60;;;18.80;66.00;;;;;;4943102;28;97085;-65
2021/10/16 10:29:51;;;;;;;1.27;0.70;;;18.80;66.00;;;;;;4976000;28;96555;-68
2021/10/16 10:32:22;;;;;;;0.55;0.52;;;18.80;66.00;;;;;;4942261;28;97403;-65
2021/10/16 10:35:00;;;;;;;1.38;0.75;;;18.80;66.00;;;;;;4978495;28;95409;-65
2021/10/16 10:37:42;;;;;;;0.60;0.60;;;18.80;66.00;;;;;;4979803;28;96563;-68
2021/10/16 10:40:15;;;;;;;1.52;0.77;;;18.80;66.00;;;;;;4972725;28;96186;-65
2021/10/16 10:42:56;;;;;;;1.20;0.88;;;18.80;66.00;;;;;;4959465;28;96550;-64
2021/10/16 10:45:28;;;;;;;;;;;18.80;66.00;;;;;;4946916;28;95274;-65
2021/10/16 10:48:09;;;;;;;0.75;0.65;;;18.80;66.00;;;;;;4972080;28;96337;-68
2021/10/16 10:50:42;;;;;;;;;;;18.80;66.10;;;;;;4972023;28;96488;-64
2021/10/16 10:53:26;;;;;;;2.33;0.85;;;18.80;66.00;;;;;;4979496;28;95687;-65
2021/10/16 10:56:02;;;;;;;0.88;0.70;;;18.80;66.10;;;;;;4953391;28;95396;-63
2021/10/16 10:58:57;;;;;;;1.10;0.90;;;18.80;66.10;;;;;;4953147;28;95576;-64
2021/10/16 11:01:50;;;;;;;1.63;0.98;;;18.80;66.10;;;;;;4948583;28;96594;-64
2021/10/16 11:04:44;;;;;;;1.15;0.73;;;18.80;66.10;;;;;;4943368;28;95784;-64
2021/10/16 11:07:18;;;;;;;1.33;0.93;;;18.80;66.00;;;;;;4967271;28;96262;-64
2021/10/16 11:09:49;;;;;;;1.40;0.95;;;18.80;66.00;;;;;;4936875;28;95864;-69
2021/10/16 11:12:32;;;;;;;0.70;0.70;;;18.80;66.00;;;;;;4966872;28;96340;-64
2021/10/16 11:15:05;;;;;;;1.25;0.80;;;18.80;66.00;;;;;;4932640;28;95813;-64
2021/10/16 11:17:48;;;;;;;1.25;0.75;;;18.80;66.10;;;;;;4950372;28;96322;-64
2021/10/16 11:20:32;;;;;;;1.50;0.80;;;18.80;66.10;;;;;;4970007;28;95849;-64
2021/10/16 11:23:03;;;;;;;0.85;0.60;;;18.80;66.10;;;;;;4944115;28;98461;-64
2021/10/16 11:25:35;;;;;;;0.60;0.50;;;18.80;66.10;;;;;;4972221;28;96283;-65
2021/10/16 11:28:09;;;;;;;1.10;0.70;;;18.80;66.00;;;;;;4955312;28;95833;-63
2021/10/16 11:30:43;;;;;;;0.70;0.70;;;18.80;66.00;;;;;;4944048;28;97092;-63
2021/10/16 11:33:20;;;;;;;0.73;0.60;;;18.80;66.10;;;;;;4948132;28;96561;-68
2021/10/16 11:35:56;;;;;;;0.68;0.68;;;18.80;66.10;;;;;;4966498;28;97213;-68
2021/10/16 11:38:33;;;;;;;0.63;0.63;;;18.80;66.10;;;;;;4951953;28;95876;-63
2021/10/16 11:41:06;;;;;;;1.05;0.77;;;18.80;66.10;;;;;;4975313;28;96025;-69
2021/10/16 11:43:40;;;;;;;0.90;0.50;;;18.80;66.10;;;;;;4971219;28;96168;-63
2021/10/16 11:46:20;;;;;;;1.60;0.50;;;18.80;66.10;;;;;;4972559;28;95473;-63
2021/10/16 11:48:52;;;;;;;0.77;0.50;;;18.80;66.10;;;;;;4972545;28;95743;-64
2021/10/16 11:51:28;;;;;;;0.93;0.70;;;18.80;66.10;;;;;;4975910;28;95782;-64
2021/10/16 11:53:58;;;;;;;0.50;0.43;;;18.80;66.10;;;;;;4969615;28;96023;-63
2021/10/16 11:56:30;;;;;;;0.77;0.50;;;18.80;66.20;;;;;;4953550;28;96715;-64
2021/10/16 11:59:01;;;;;;;2.67;0.75;;;18.80;66.10;;;;;;4971154;28;95749;-64
2021/10/16 12:01:46;;;;;;;0.45;0.45;;;18.70;66.00;;;;;;4963587;28;98467;-69
2021/10/16 12:04:17;;;;;;;0.52;0.52;;;18.70;66.10;;;;;;4970534;28;96812;-69
2021/10/16 12:06:50;;;;;;;1.17;0.88;;;18.80;66.20;;;;;;4973276;28;97223;-64
2021/10/16 12:09:21;;;;;;;0.82;0.70;;;18.70;66.10;;;;;;4955218;28;95969;-65
2021/10/16 12:12:01;;;;;;;1.42;0.80;;;18.80;66.10;;;;;;4970862;28;95380;-70
2021/10/16 12:14:31;;;;;;;0.60;0.60;;;18.70;66.10;;;;;;4951671;28;96656;-69
2021/10/16 12:17:08;;;;;;;1.77;1.05;;;18.70;66.10;;;;;;4978467;28;96280;-67
2021/10/16 12:19:41;;;;;;;0.50;0.43;;;18.70;66.10;;;;;;4995575;28;95741;-68
2021/10/16 12:22:10;;;;;;;0.63;0.63;;;18.70;66.10;;;;;;4966539;28;95743;-63
2021/10/16 12:24:41;;;;;;;1.48;0.60;;;18.60;66.20;;;;;;4956578;28;96204;-63
2021/10/16 12:27:16;;;;;;;0.60;0.60;;;18.60;66.30;;;;;;4987194;28;97454;-63
2021/10/16 12:29:50;;;;;;;1.10;0.60;;;18.50;66.50;;;;;;4971325;28;95662;-63
2021/10/16 12:32:22;;;;;;;0.98;0.57;;;18.50;66.40;;;;;;4947126;28;95750;-62
2021/10/16 12:34:53;;;;;;;0.82;0.63;;;18.50;66.40;;;;;;4951649;28;96042;-63
2021/10/16 12:37:23;;;;;;;1.25;0.60;;;18.50;66.40;;;;;;4942746;28;95368;-67
2021/10/16 12:39:53;;;;;;;0.52;0.52;;;18.50;66.50;;;;;;4972569;28;95956;-63
2021/10/16 12:42:30;;;;;;;1.10;0.65;;;18.50;66.50;;;;;;4982858;28;97010;-63
2021/10/16 12:45:10;;;;;;;1.23;0.70;;;18.50;66.50;;;;;;4972642;28;96234;-63
2021/10/16 12:47:40;;;;;;;0.60;0.60;;;18.40;66.50;;;;;;4958642;28;106222;-69
2021/10/16 12:50:10;;;;;;;0.88;0.60;;;18.40;66.60;;;;;;4976755;28;95680;-63
2021/10/16 12:52:46;;;;;;;0.95;0.68;;;18.40;67.30;;;;;;4973697;28;95940;-63
2021/10/16 12:55:18;;;;;;;1.23;1.00;;;18.40;66.70;;;;;;4971532;28;96414;-69
2021/10/16 12:57:58;;;;;;;0.68;0.60;;;18.30;66.70;;;;;;4961166;28;95501;-64
2021/10/16 13:00:35;;;;;;;2.05;1.20;;;18.30;66.70;;;;;;4933769;28;95892;-68
2021/10/16 13:03:08;;;;;;;1.65;1.15;;;18.30;66.30;;;;;;4982664;28;95906;-67
2021/10/16 13:05:40;;;;;;;2.25;0.88;;;18.20;66.70;;;;;;4974184;28;98269;-63
2021/10/16 13:08:13;;;;;;;1.52;0.77;;;18.10;67.00;;;;;;4977778;28;97008;-63
2021/10/16 13:10:45;;;;;;;3.85;1.17;;;18.20;67.10;;;;;;4972524;28;95822;-64
2021/10/16 13:13:15;;;;;;;3.22;1.10;;;18.10;67.20;;;;;;4958000;28;95796;-68
2021/10/16 13:15:47;;;;;;;2.28;1.55;;;18.10;67.30;;;;;;4961763;28;96120;-63
2021/10/16 13:18:18;;;;;;;1.95;1.50;;;18.10;67.40;;;;;;4976399;28;96072;-64
2021/10/16 13:20:49;;;;;;;2.22;1.50;;;18.10;67.70;;;;;;4986978;28;96045;-67
2021/10/16 13:23:18;;;;;;;2.55;1.17;;;18.00;67.70;;;;;;4954512;28;95827;-67
2021/10/16 13:25:50;;;;;;;2.28;1.30;;;18.00;67.70;;;;;;4972052;28;96135;-67
2021/10/16 13:28:22;;;;;;;3.47;1.70;;;17.90;68.00;;;;;;4972518;28;95506;-62
2021/10/16 13:30:54;;;;;;;1.92;1.20;;;17.90;68.20;;;;;;4965374;28;95428;-67